Time;durP1;ratioP1;P1;durP2;ratioP2;P2;SDS_P1;SDS_P2;PMS_P1;PMS_P2;Temp;Humidity;BMP_temperature;BMP_pressure;BME280_temperature;BME280_humidity;BME280_pressure;Samples;Min_cycle;Max_cycle;Signal;HPM_P1;HPM_P2
2022/07/01 00:00:25;;;;;;;10.23;9.50;;;;;;;13.85;100.00;65631.63;5115759;28;20340;-73
2022/07/01 00:02:52;;;;;;;11.07;10.17;;;;;;;13.84;100.00;65631.06;5114839;28;20580;-72
2022/07/01 00:05:18;;;;;;;11.40;10.57;;;;;;;13.88;100.00;65640.19;5115631;28;20283;-72
2022/07/01 00:07:46;;;;;;;10.43;9.83;;;;;;;13.81;100.00;65627.72;5114526;28;20610;-73
2022/07/01 00:10:12;;;;;;;10.70;10.10;;;;;;;;;;5115641;28;20204;-73
2022/07/01 00:12:39;;;;;;;9.60;9.03;;;;;;;13.83;100.00;65627.34;5114904;28;20248;-73
2022/07/01 00:15:05;;;;;;;9.90;9.40;;;;;;;13.91;100.00;65657.09;5115538;28;20213;-73
2022/07/01 00:17:32;;;;;;;9.83;9.20;;;;;;;13.86;100.00;65637.94;5115475;28;20673;-74
2022/07/01 00:19:58;;;;;;;9.53;8.93;;;;;;;13.86;100.00;65633.31;5113023;28;20243;-73
2022/07/01 00:22:27;;;;;;;9.77;9.37;;;;;;;13.90;100.00;65637.19;5115594;28;20227;-73
2022/07/01 00:24:54;;;;;;;10.37;9.77;;;;;;;13.84;100.00;65635.72;5115329;28;20208;-73
2022/07/01 00:27:22;;;;;;;11.17;10.33;;;;;;;13.85;100.00;65632.16;5115549;28;20180;-73
2022/07/01 00:29:48;;;;;;;10.53;9.63;;;;;;;13.84;100.00;65636.28;5115214;28;20212;-73
2022/07/01 00:32:15;;;;;;;8.90;8.50;;;;;;;13.85;100.00;65634.78;5113719;28;20260;-73
2022/07/01 00:34:41;;;;;;;9.77;9.43;;;;;;;13.80;100.00;65642.28;5115401;28;20216;-73
2022/07/01 00:37:07;;;;;;;10.87;10.27;;;;;;;13.91;100.00;65644.06;5115361;28;20185;-73
2022/07/01 00:39:35;;;;;;;11.30;10.33;;;;;;;13.88;100.00;65635.50;5114945;28;20247;-73
2022/07/01 00:42:04;;;;;;;11.20;10.30;;;;;;;13.83;100.00;65632.00;5114533;28;20626;-73
2022/07/01 00:44:31;;;;;;;11.20;10.50;;;;;;;13.85;100.00;65637.38;5111154;28;20317;-73
2022/07/01 00:47:04;;;;;;;12.90;11.80;;;;;;;13.82;100.00;65636.66;5114822;28;20250;-73
2022/07/01 00:49:31;;;;;;;12.83;11.50;;;;;;;13.78;100.00;65638.00;5115122;28;20162;-73
2022/07/01 00:51:57;;;;;;;14.50;11.70;;;;;;;13.76;100.00;65630.56;5114728;28;20204;-73
2022/07/01 00:54:26;;;;;;;12.87;11.37;;;;;;;13.77;100.00;65626.44;5114374;28;20187;-73
2022/07/01 00:56:52;;;;;;;13.23;11.83;;;;;;;13.78;100.00;65645.25;5115284;28;20184;-73
2022/07/01 00:59:19;;;;;;;16.70;12.93;;;;;;;13.84;100.00;65638.88;5113722;28;20243;-73
2022/07/01 01:01:45;;;;;;;15.33;13.13;;;;;;;13.80;100.00;65629.22;5114564;28;20188;-73
2022/07/01 01:04:12;;;;;;;15.10;13.50;;;;;;;13.81;100.00;65625.13;5113177;28;20543;-73
2022/07/01 01:06:42;;;;;;;20.93;14.70;;;;;;;13.79;100.00;65628.13;5113787;28;20689;-73
2022/07/01 01:09:09;;;;;;;23.17;15.23;;;;;;;13.83;100.00;65635.16;5114766;28;20646;-73
2022/07/01 01:11:35;;;;;;;21.50;16.13;;;;;;;13.74;100.00;65625.16;5114656;28;20216;-73
2022/07/01 01:14:02;;;;;;;18.63;15.87;;;;;;;13.80;100.00;65629.22;5113773;28;20227;-73
2022/07/01 01:16:28;;;;;;;24.63;16.43;;;;;;;13.76;100.00;65627.38;5113948;28;20717;-73
2022/07/01 01:18:55;;;;;;;21.70;15.00;;;;;;;13.85;100.00;65637.38;5114855;28;20181;-73
2022/07/01 01:21:22;;;;;;;23.70;15.80;;;;;;;13.81;100.00;65640.78;5114856;28;20222;-73
2022/07/01 01:23:49;;;;;;;23.10;16.43;;;;;;;13.85;100.00;65632.16;5114198;28;20237;-73
2022/07/01 01:26:17;;;;;;;26.30;18.83;;;;;;;13.76;100.00;65627.38;5114257;28;20193;-72
2022/07/01 01:28:43;;;;;;;29.03;18.03;;;;;;;13.76;100.00;65630.00;5112771;28;20220;-73
2022/07/01 01:31:10;;;;;;;32.77;18.10;;;;;;;13.73;100.00;65624.06;5113829;28;20688;-73
2022/07/01 01:33:38;;;;;;;32.40;19.37;;;;;;;13.73;100.00;65618.84;5114304;28;20764;-73
2022/07/01 01:36:06;;;;;;;34.87;19.53;;;;;;;13.73;100.00;65619.41;5114372;28;20215;-73
2022/07/01 01:38:34;;;;;;;34.17;19.43;;;;;;;13.73;100.00;65622.00;5114011;28;20223;-73
2022/07/01 01:41:02;;;;;;;29.70;18.47;;;;;;;13.84;100.00;65630.50;5112502;28;20232;-72
2022/07/01 01:43:29;;;;;;;32.47;19.53;;;;;;;13.82;100.00;65628.28;5113897;28;20751;-73
2022/07/01 01:45:56;;;;;;;29.00;18.43;;;;;;;13.88;100.00;65648.56;5114461;28;20223;-72
2022/07/01 01:48:22;;;;;;;31.73;19.67;;;;;;;13.90;100.00;65637.72;5113347;28;20232;-72
2022/07/01 01:50:48;;;;;;;31.90;18.00;;;;;;;13.74;100.00;65619.97;5114106;28;20209;-72
2022/07/01 01:53:15;;;;;;;19.27;16.10;;;;;;;13.75;100.00;65618.44;5113116;28;20208;-72
2022/07/01 01:55:41;;;;;;;21.13;15.67;;;;;;;13.75;100.00;65628.88;5114053;28;20212;-72
2022/07/01 01:58:08;;;;;;;18.00;15.90;;;;;;;13.69;100.00;65617.56;5113777;28;20181;-72
2022/07/01 02:00:34;;;;;;;19.60;15.47;;;;;;;13.62;100.00;65606.59;5113956;28;20236;-72
2022/07/01 02:03:00;;;;;;;15.30;13.50;;;;;;;13.66;100.00;65627.28;5112578;28;20269;-72
2022/07/01 02:05:27;;;;;;;15.13;13.50;;;;;;;13.65;100.00;65610.50;5113820;28;20646;-72
2022/07/01 02:07:53;;;;;;;16.17;13.47;;;;;;;13.57;100.00;65604.22;5113941;28;20226;-72
2022/07/01 02:10:20;;;;;;;14.17;12.70;;;;;;;13.66;100.00;65616.28;5113666;28;20606;-72
2022/07/01 02:12:47;;;;;;;12.60;11.57;;;;;;;13.62;100.00;65622.81;5113572;28;20248;-72
2022/07/01 02:15:13;;;;;;;14.10;12.80;;;;;;;13.64;100.00;65614.03;5112496;28;20219;-72
2022/07/01 02:17:40;;;;;;;14.80;13.20;;;;;;;13.66;100.00;65621.50;5113626;28;20662;-72
2022/07/01 02:20:07;;;;;;;12.63;11.47;;;;;;;13.64;100.00;65609.38;5114043;28;20227;-72
2022/07/01 02:22:33;;;;;;;12.60;11.30;;;;;;;13.60;100.00;65620.03;5112451;28;20212;-72
2022/07/01 02:25:00;;;;;;;11.77;10.70;;;;;;;13.63;100.00;65615.53;5113516;28;20181;-72
2022/07/01 02:27:26;;;;;;;14.70;12.10;;;;;;;13.55;100.00;65604.03;5112802;28;20284;-72
2022/07/01 02:29:52;;;;;;;13.33;11.20;;;;;;;13.57;100.00;65606.81;5113490;28;20188;-72
2022/07/01 02:32:19;;;;;;;11.80;10.90;;;;;;;13.52;100.00;65603.31;5112773;28;20239;-71
2022/07/01 02:34:45;;;;;;;11.93;10.70;;;;;;;13.54;100.00;65608.16;5113404;28;20196;-72
2022/07/01 02:37:12;;;;;;;10.53;9.77;;;;;;;13.53;100.00;65601.84;5112023;28;20662;-72
2022/07/01 02:39:38;;;;;;;10.50;9.50;;;;;;;13.48;100.00;65597.38;5092940;28;20237;-72
2022/07/01 02:42:22;;;;;;;10.33;9.00;;;;;;;13.52;100.00;65600.72;5093575;28;20265;-69
2022/07/01 02:44:49;;;;;;;9.77;8.83;;;;;;;13.46;100.00;65589.94;5097516;28;20202;-72
2022/07/01 02:47:15;;;;;;;8.80;8.40;;;;;;;13.39;100.00;65579.56;5097481;28;20216;-71
2022/07/01 02:49:42;;;;;;;10.20;9.47;;;;;;;13.41;100.00;65589.59;5117215;28;20222;-72
2022/07/01 02:52:08;;;;;;;10.93;10.13;;;;;;;;;;5117089;28;20248;-72
2022/07/01 02:54:34;;;;;;;10.93;10.10;;;;;;;13.43;100.00;65586.03;5117105;28;20221;-72
2022/07/01 02:57:01;;;;;;;12.10;10.53;;;;;;;13.47;100.00;65593.66;5117605;28;20641;-73
2022/07/01 02:59:28;;;;;;;11.10;10.23;;;;;;;13.45;100.00;65594.06;5116235;28;20203;-72
2022/07/01 03:01:55;;;;;;;11.90;10.73;;;;;;;13.41;100.00;65589.03;5116914;28;20223;-72
2022/07/01 03:04:21;;;;;;;10.73;10.07;;;;;;;13.50;100.00;65593.81;5116828;28;20211;-72
2022/07/01 03:06:48;;;;;;;13.93;10.27;;;;;;;13.50;100.00;65599.03;5116910;28;20259;-73
2022/07/01 03:09:15;;;;;;;12.60;10.77;;;;;;;13.41;100.00;65589.03;5115809;28;20199;-72
2022/07/01 03:11:41;;;;;;;11.93;10.87;;;;;;;13.43;100.00;65586.63;5116064;28;20316;-71
2022/07/01 03:14:07;;;;;;;12.23;11.23;;;;;;;13.47;100.00;65593.09;5116750;28;20189;-72
2022/07/01 03:16:34;;;;;;;12.13;10.00;;;;;;;13.44;100.00;65595.56;5116689;28;20220;-72
2022/07/01 03:19:01;;;;;;;11.20;10.10;;;;;;;13.54;100.00;65600.88;5116678;28;20243;-72
2022/07/01 03:21:28;;;;;;;10.77;10.07;;;;;;;13.47;100.00;65598.88;5116567;28;20238;-72
2022/07/01 03:23:54;;;;;;;12.47;11.30;;;;;;;13.49;100.00;65597.94;5115153;28;20239;-72
2022/07/01 03:26:21;;;;;;;12.23;11.03;;;;;;;13.51;100.00;65602.78;5116767;28;20227;-72
2022/07/01 03:28:47;;;;;;;11.70;10.83;;;;;;;;;;5116315;28;20566;-72
2022/07/01 03:31:14;;;;;;;20.03;10.57;;;;;;;;;;5116425;28;20216;-72
2022/07/01 03:33:40;;;;;;;14.27;10.60;;;;;;;13.62;100.00;65611.81;5115742;28;20212;-72
2022/07/01 03:36:07;;;;;;;13.93;10.90;;;;;;;13.53;100.00;65596.63;5114920;28;20226;-72
2022/07/01 03:38:33;;;;;;;13.30;11.00;;;;;;;;;;5116302;28;20279;-72
2022/07/01 03:40:59;;;;;;;12.87;11.37;;;;;;;13.57;100.00;65608.88;5116141;28;20236;-72
2022/07/01 03:43:26;;;;;;;13.13;11.47;;;;;;;13.46;100.00;65592.56;5116106;28;20243;-72
2022/07/01 03:45:52;;;;;;;11.33;10.43;;;;;;;;;;5115329;28;20631;-71
2022/07/01 03:48:19;;;;;;;12.63;11.33;;;;;;;13.43;100.00;65591.84;5115208;28;20213;-72
2022/07/01 03:50:45;;;;;;;11.57;10.67;;;;;;;13.39;100.00;65584.22;5115996;28;20216;-72
2022/07/01 03:55:56;;;;;;;11.87;10.57;;;;;;;13.38;100.00;65581.06;5116254;28;20204;-72
2022/07/01 03:58:23;;;;;;;11.03;9.90;;;;;;;13.44;100.00;65603.38;5116162;28;20219;-72
2022/07/01 04:00:49;;;;;;;11.83;10.83;;;;;;;13.38;100.00;65581.06;5114106;28;20626;-72
2022/07/01 04:03:16;;;;;;;11.73;10.63;;;;;;;13.39;100.00;65579.56;5115727;28;20731;-73
2022/07/01 04:05:42;;;;;;;10.20;9.43;;;;;;;13.37;100.00;65585.16;5115627;28;20241;-72
2022/07/01 04:08:10;;;;;;;9.97;9.33;;;;;;;13.40;100.00;65585.88;5115716;28;20599;-72
2022/07/01 04:10:38;;;;;;;11.17;10.27;;;;;;;13.42;100.00;65584.94;5115654;28;20223;-72
2022/07/01 04:13:05;;;;;;;12.40;9.93;;;;;;;13.45;100.00;65591.44;5112854;28;20217;-72
2022/07/01 04:15:51;;;;;;;10.80;10.00;;;;;;;13.41;100.00;65597.41;5114796;28;20199;-72
2022/07/01 04:18:18;;;;;;;10.27;9.50;;;;;;;13.41;100.00;65599.47;5115730;28;20279;-72
2022/07/01 04:22:32;;;;;;;11.30;10.37;;;;;;;13.40;100.00;65588.50;5114975;28;20297;-72
2022/07/01 04:23:33;;;;;;;11.37;10.37;;;;;;;13.37;100.00;65576.78;5115243;28;20205;-72
2022/07/01 04:25:59;;;;;;;10.60;9.67;;;;;;;13.36;100.00;65575.66;5114989;28;20251;-72
2022/07/01 04:28:46;;;;;;;11.33;10.17;;;;;;;13.40;100.00;65583.28;5113718;28;20324;-72
2022/07/01 04:31:12;;;;;;;11.03;10.13;;;;;;;13.41;100.00;65591.66;5115190;28;20220;-72
2022/07/01 04:33:38;;;;;;;12.47;11.60;;;;;;;13.40;100.00;65588.50;5115076;28;20219;-72
2022/07/01 04:36:05;;;;;;;14.10;11.27;;;;;;;13.46;100.00;65595.16;5114160;28;20229;-72
2022/07/01 04:38:31;;;;;;;13.77;12.37;;;;;;;13.45;100.00;65588.84;5114266;28;20224;-72
2022/07/01 04:43:43;;;;;;;13.83;12.63;;;;;;;13.47;100.00;65588.44;5114959;28;20242;-72
2022/07/01 04:46:09;;;;;;;17.10;13.90;;;;;;;13.53;100.00;65597.16;5114147;28;20657;-72
2022/07/01 04:48:35;;;;;;;19.30;13.10;;;;;;;13.54;100.00;65602.94;5115649;28;20181;-72
2022/07/01 04:51:02;;;;;;;21.57;12.67;;;;;;;13.52;100.00;65592.91;5114833;28;20212;-72
2022/07/01 04:53:30;;;;;;;13.93;12.63;;;;;;;13.52;100.00;65606.50;5115071;28;20208;-72
2022/07/01 04:55:57;;;;;;;14.17;12.67;;;;;;;13.59;100.00;65603.28;5113655;28;20200;-72
2022/07/01 04:58:24;;;;;;;16.57;13.67;;;;;;;13.59;100.00;65603.84;5115258;28;20215;-72
2022/07/01 05:00:51;;;;;;;18.10;12.20;;;;;;;13.60;100.00;65612.22;5114650;28;20236;-72
2022/07/01 05:03:18;;;;;;;13.47;12.23;;;;;;;13.65;100.00;65615.19;5114593;28;20238;-73
2022/07/01 05:05:45;;;;;;;13.80;12.40;;;;;;;13.65;100.00;65609.97;5112615;28;20200;-72
2022/07/01 05:08:11;;;;;;;12.93;11.97;;;;;;;13.66;100.00;65608.47;5114571;28;20653;-72
2022/07/01 05:10:37;;;;;;;12.77;11.77;;;;;;;13.69;100.00;65619.59;5113912;28;20217;-72
2022/07/01 05:13:04;;;;;;;12.77;11.73;;;;;;;13.71;100.00;65617.16;5113614;28;20249;-73
2022/07/01 05:15:31;;;;;;;15.73;12.03;;;;;;;13.74;100.00;65619.97;5113533;28;20258;-73
2022/07/01 05:23:27;;;;;;;12.50;11.37;;;;;;;13.70;100.00;65621.28;5113949;28;20633;-72
2022/07/01 05:25:53;;;;;;;12.93;11.80;;;;;;;13.68;100.00;65615.88;5114226;28;20217;-72
2022/07/01 05:28:20;;;;;;;12.20;11.03;;;;;;;13.73;100.00;65624.06;5114174;28;20212;-72
2022/07/01 05:30:46;;;;;;;12.40;11.33;;;;;;;13.75;100.00;65618.44;5114671;28;20201;-73
2022/07/01 05:33:13;;;;;;;12.63;11.47;;;;;;;13.70;100.00;65625.94;5113336;28;20567;-72
2022/07/01 05:35:39;;;;;;;12.50;11.47;;;;;;;13.71;100.00;65617.16;5114617;28;20188;-73
2022/07/01 05:38:06;;;;;;;12.57;11.60;;;;;;;13.76;100.00;65622.16;5113980;28;20212;-73
2022/07/01 05:40:32;;;;;;;10.77;10.17;;;;;;;13.77;100.00;65623.28;5113389;28;20266;-72
2022/07/01 05:42:58;;;;;;;11.87;11.07;;;;;;;13.76;100.00;65622.16;5113019;28;20678;-72
2022/07/01 05:45:25;;;;;;;12.10;11.30;;;;;;;13.71;100.00;65616.59;5113795;28;20212;-73
2022/07/01 05:47:51;;;;;;;12.13;11.20;;;;;;;13.83;100.00;65629.94;5113845;28;20213;-72
2022/07/01 05:50:18;;;;;;;12.43;11.27;;;;;;;13.72;100.00;65622.97;5114011;28;20217;-72
2022/07/01 05:52:45;;;;;;;13.87;11.17;;;;;;;13.72;100.00;65630.78;5112600;28;20322;-72
2022/07/01 05:55:12;;;;;;;12.03;11.23;;;;;;;13.75;100.00;65621.63;5113184;28;20224;-72
2022/07/01 05:57:38;;;;;;;10.93;10.17;;;;;;;13.74;100.00;65625.16;5113988;28;20231;-72
2022/07/01 06:00:06;;;;;;;10.80;10.00;;;;;;;13.76;100.00;65627.94;5111963;28;20735;-69
2022/07/01 06:02:37;;;;;;;11.40;10.57;;;;;;;13.74;100.00;65628.34;5093553;28;20303;-72
2022/07/01 06:05:04;;;;;;;11.93;11.13;;;;;;;13.80;100.00;65634.44;5104026;28;20232;-73
2022/07/01 06:07:30;;;;;;;12.63;11.53;;;;;;;13.82;100.00;65639.28;5112955;28;20221;-73
2022/07/01 06:09:57;;;;;;;14.70;11.30;;;;;;;13.84;100.00;65636.28;5112704;28;20217;-72
2022/07/01 06:12:23;;;;;;;12.77;10.93;;;;;;;13.87;100.00;65634.41;5112952;28;20294;-72
2022/07/01 06:14:50;;;;;;;11.27;10.70;;;;;;;13.87;100.00;65644.84;5113965;28;20193;-72
2022/07/01 06:17:16;;;;;;;13.50;12.40;;;;;;;13.88;100.00;65653.22;5113398;28;20223;-72
2022/07/01 06:19:43;;;;;;;13.20;12.03;;;;;;;13.90;100.00;65642.41;5118127;28;20217;-72
2022/07/01 06:22:09;;;;;;;13.63;12.57;;;;;;;13.86;100.00;65632.72;5116995;28;21852;-71
2022/07/01 06:24:36;;;;;;;15.00;13.47;;;;;;;13.93;100.00;65638.47;5114142;28;20209;-72
2022/07/01 06:27:04;;;;;;;14.47;12.43;;;;;;;13.91;100.00;65638.84;5114332;28;20184;-71
2022/07/01 06:29:30;;;;;;;13.20;11.83;;;;;;;13.95;100.00;65647.97;5117629;28;20196;-72
2022/07/01 06:31:57;;;;;;;18.20;13.67;;;;;;;13.93;100.00;65643.69;5117565;28;20244;-72
2022/07/01 06:34:24;;;;;;;13.23;12.23;;;;;;;14.02;100.00;65651.09;5116964;28;20197;-72
2022/07/01 06:36:50;;;;;;;12.90;11.93;;;;;;;14.00;100.00;65653.50;5114805;28;20836;-72
2022/07/01 06:39:18;;;;;;;15.03;13.67;;;;;;;13.95;100.00;65648.53;5117338;28;20189;-73
2022/07/01 06:41:45;;;;;;;13.63;12.10;;;;;;;14.04;100.00;65663.75;5116366;28;20270;-72
2022/07/01 06:44:11;;;;;;;14.57;13.67;;;;;;;14.05;100.00;65654.41;5117274;28;20554;-72
2022/07/01 06:46:37;;;;;;;16.80;13.70;;;;;;;14.12;100.00;65661.63;5115064;28;20225;-72
2022/07/01 06:49:04;;;;;;;16.17;14.40;;;;;;;14.13;100.00;65670.56;5117516;28;20643;-73
2022/07/01 06:51:30;;;;;;;15.43;14.03;;;;;;;14.12;100.00;65664.25;5115544;28;20250;-72
2022/07/01 06:53:57;;;;;;;16.27;14.83;;;;;;;14.18;100.00;65673.53;5114798;28;20263;-72
2022/07/01 06:56:23;;;;;;;14.77;13.63;;;;;;;14.26;100.00;65690.25;5114046;28;20243;-72
2022/07/01 06:58:50;;;;;;;14.97;13.37;;;;;;;14.30;100.00;65681.66;5116156;28;20276;-72
2022/07/01 07:01:16;;;;;;;15.63;14.10;;;;;;;14.33;100.00;65687.59;5103921;28;20208;-72
2022/07/01 07:03:42;;;;;;;13.57;12.63;;;;;;;14.28;100.00;65678.88;5113359;28;20256;-73
2022/07/01 07:06:09;;;;;;;13.37;12.57;;;;;;;14.32;100.00;65691.16;5116221;28;20201;-73
2022/07/01 07:08:36;;;;;;;14.60;13.07;;;;;;;14.28;100.00;65684.66;5114999;28;20185;-72
2022/07/01 07:11:03;;;;;;;12.40;11.30;;;;;;;14.37;100.00;65685.72;5115656;28;20616;-73
2022/07/01 07:13:30;;;;;;;14.13;13.00;;;;;;;14.35;100.00;65686.66;5115520;28;20209;-72
2022/07/01 07:15:56;;;;;;;14.40;12.93;;;;;;;14.35;100.00;65691.88;5113592;28;20667;-72
2022/07/01 07:18:23;;;;;;;12.43;11.27;;;;;;;14.47;100.00;65704.69;5108341;28;20215;-71
2022/07/01 07:20:49;;;;;;;14.10;12.93;;;;;;;14.51;100.00;65707.09;5115419;28;20221;-72
2022/07/01 07:23:15;;;;;;;12.70;11.57;;;;;;;14.61;100.00;65724.94;5115943;28;20213;-71
2022/07/01 07:25:43;;;;;;;12.17;11.53;;;;;;;;;;5101697;28;20219;-72
2022/07/01 07:28:10;;;;;;;14.73;13.23;;;;;;;14.69;100.00;65723.94;5114923;28;20188;-72
2022/07/01 07:30:36;;;;;;;13.10;12.23;;;;;;;14.79;100.00;65744.97;5114279;28;20213;-72
2022/07/01 07:33:03;;;;;;;12.83;11.97;;;;;;;14.82;100.00;65735.78;5115550;28;20545;-72
2022/07/01 07:35:29;;;;;;;11.50;11.00;;;;;;;14.91;100.00;65753.09;5111056;28;20979;-72
2022/07/01 07:37:55;;;;;;;11.77;10.57;;;;;;;15.05;100.00;65763.44;5116617;28;20189;-72
2022/07/01 07:40:22;;;;;;;10.73;9.93;;;;;;;15.01;100.00;65758.44;5115706;28;20216;-72
2022/07/01 07:42:49;;;;;;;12.97;12.03;;;;;;;15.00;100.00;65757.88;5116082;28;20213;-72
2022/07/01 07:45:16;;;;;;;10.53;9.97;;;;;;;15.07;100.00;65765.09;5115455;28;20231;-72
2022/07/01 07:47:48;;;;;;;17.17;14.70;;;;;;;14.97;100.00;65753.97;5115533;28;20189;-72
2022/07/01 07:50:15;;;;;;;24.80;14.40;;;;;;;14.93;100.00;65754.75;5112835;28;20231;-72
2022/07/01 07:52:42;;;;;;;14.53;13.30;;;;;;;14.86;100.00;65744.94;5114682;28;20244;-72
2022/07/01 07:55:09;;;;;;;19.03;13.67;;;;;;;14.90;100.00;65751.97;5112835;28;20220;-72
2022/07/01 07:57:36;;;;;;;14.70;13.63;;;;;;;14.86;100.00;65742.31;5109338;28;20212;-70
2022/07/01 08:00:05;;;;;;;14.13;13.10;;;;;;;14.86;100.00;65739.69;5115180;28;20217;-72
2022/07/01 08:02:38;;;;;;;12.20;11.57;;;;;;;14.89;100.00;65748.25;5115183;28;20706;-71
2022/07/01 08:05:05;;;;;;;12.83;11.93;;;;;;;14.93;100.00;65747.50;5114270;28;20633;-71
2022/07/01 08:07:41;;;;;;;13.60;12.23;;;;;;;14.92;100.00;65753.63;5115720;28;20277;-72
2022/07/01 08:10:09;;;;;;;11.00;10.50;;;;;;;15.00;100.00;65757.88;5114505;28;20580;-71
2022/07/01 08:12:36;;;;;;;12.80;11.60;;;;;;;15.12;100.00;65786.34;5115890;28;20251;-71
2022/07/01 08:15:03;;;;;;;16.93;11.63;;;;;;;15.09;100.00;65773.13;5115861;28;20263;-72
2022/07/01 08:17:30;;;;;;;11.20;10.40;;;;;;;15.15;100.00;65774.03;5115847;28;20193;-72
2022/07/01 08:19:56;;;;;;;11.70;11.20;;;;;;;15.10;100.00;65774.25;5115771;28;20582;-72
2022/07/01 08:22:23;;;;;;;12.17;10.37;;;;;;;15.14;100.00;65772.91;5115484;28;20240;-71
2022/07/01 08:24:49;;;;;;;10.53;10.00;;;;;;;15.10;100.00;65768.44;5115424;28;20224;-72
2022/07/01 08:27:16;;;;;;;10.07;9.60;;;;;;;;;;5113865;27;20524;-71
2022/07/01 08:29:42;;;;;;;9.17;8.97;;;;;;;15.01;100.00;65766.84;5113339;27;20193;-71
2022/07/01 08:32:09;;;;;;;8.87;8.47;;;;;;;15.01;100.00;65761.06;5116238;27;20262;-71
2022/07/01 08:34:35;;;;;;;9.80;9.20;;;;;;;15.06;100.00;65764.53;5118754;27;20261;-71
2022/07/01 08:37:03;;;;;;;9.37;8.90;;;;;;;15.01;100.00;65764.22;5117319;27;20621;-72
2022/07/01 08:39:30;;;;;;;9.03;8.30;;;;;;;15.14;100.00;65778.69;5114094;28;20624;-71
2022/07/01 08:41:57;;;;;;;8.80;7.50;;;;;;;15.20;100.00;65779.03;5114587;28;20241;-71
2022/07/01 08:44:25;;;;;;;6.83;6.37;;;;;;;15.26;100.00;65796.16;5114886;28;20185;-71
2022/07/01 08:46:51;;;;;;;8.80;7.53;;;;;;;15.34;100.00;65797.22;5114954;28;20221;-72
2022/07/01 08:49:18;;;;;;;7.50;7.27;;;;;;;15.44;100.00;65805.75;5114775;28;20564;-70
2022/07/01 08:51:44;;;;;;;6.53;6.30;;;;;;;15.55;100.00;65817.44;5115298;27;20185;-71
2022/07/01 08:54:11;;;;;;;8.00;7.07;;;;;;;15.57;100.00;65828.06;5114824;28;20192;-71
2022/07/01 08:56:40;;;;;;;8.60;5.70;;;;;;;15.50;100.00;65817.66;5114498;28;20216;-71
2022/07/01 08:59:20;;;;;;;5.33;5.33;;;;;;;15.56;100.00;65818.53;5116358;27;20212;-71
2022/07/01 09:02:04;;;;;;;5.63;5.20;;;;;;;15.55;100.00;65820.59;5114570;28;20228;-71
2022/07/01 09:04:31;;;;;;;6.10;5.93;;;;;;;15.55;100.00;65817.97;5114299;28;20197;-70
2022/07/01 09:07:07;;;;;;;5.60;5.27;;;;;;;15.58;100.00;65820.78;5114535;28;20647;-71
2022/07/01 09:09:35;;;;;;;5.83;5.40;;;;;;;15.55;100.00;65828.44;5113005;28;20201;-71
2022/07/01 09:12:02;;;;;;;5.67;5.33;;;;;;;;;;5114395;28;20702;-71
2022/07/01 09:14:31;;;;;;;5.07;4.87;;;;;;;15.58;100.00;65818.72;5113510;28;20185;-69
2022/07/01 09:16:59;;;;;;;6.43;6.10;;;;;;;15.53;100.00;65815.19;5101702;28;20250;-69
2022/07/01 09:19:27;;;;;;;5.67;5.53;;;;;;;;;;5105446;28;20193;-70
2022/07/01 09:22:01;;;;;;;5.70;5.47;;;;;;;15.87;100.00;65850.47;5105553;28;20292;-70
2022/07/01 09:24:34;;;;;;;4.30;4.10;;;;;;;16.13;100.00;65873.63;5113338;28;20218;-71
2022/07/01 09:27:12;;;;;;;4.53;4.43;;;;;;;16.11;100.00;65870.84;5111937;28;20220;-70
2022/07/01 09:29:41;;;;;;;4.93;4.83;;;;;;;16.08;100.00;65873.31;5098798;28;20185;-71
2022/07/01 09:32:10;;;;;;;5.40;5.17;;;;;;;16.08;100.00;65867.50;5113283;28;20204;-70
2022/07/01 09:34:42;;;;;;;4.30;4.30;;;;;;;;;;5112496;28;20242;-70
2022/07/01 09:37:12;;;;;;;5.63;5.10;;;;;;;16.27;100.00;65896.50;5113162;28;20639;-71
2022/07/01 09:39:50;;;;;;;4.20;4.00;;;;;;;16.43;97.81;65919.03;5114329;28;20201;-72
2022/07/01 09:42:19;;;;;;;4.33;4.00;;;;;;;16.45;95.04;65913.41;5113136;28;20294;-71
2022/07/01 09:45:07;;;;;;;4.43;4.37;;;;;;;16.56;95.46;65927.72;5112218;28;20595;-71
2022/07/01 09:47:36;;;;;;;5.00;4.73;;;;;;;16.52;94.00;65921.19;5102691;28;20228;-71
2022/07/01 09:50:04;;;;;;;4.07;3.97;;;;;;;16.51;94.02;65922.72;5105505;28;20223;-70
2022/07/01 09:52:30;;;;;;;3.90;3.37;;;;;;;16.74;97.42;65956.22;5112548;28;20247;-71
2022/07/01 09:55:06;;;;;;;8.10;3.03;;;;;;;16.81;90.50;65952.44;5105244;28;20227;-71
2022/07/01 09:57:33;;;;;;;2.63;2.63;;;;;;;16.76;89.42;65942.72;5106558;28;20193;-70
2022/07/01 10:00:00;;;;;;;2.87;2.77;;;;;;;;;;5112831;28;20216;-70
2022/07/01 10:02:32;;;;;;;3.50;3.40;;;;;;;;;;5110611;28;20229;-70
2022/07/01 10:05:05;;;;;;;4.20;3.90;;;;;;;16.91;94.64;65958.31;5111467;28;20197;-70
2022/07/01 10:08:10;;;;;;;3.70;3.60;;;;;;;16.86;88.26;65963.81;5114265;28;20177;-71
2022/07/01 10:10:36;;;;;;;4.20;3.80;;;;;;;;;;5113998;28;20205;-70
2022/07/01 10:13:07;;;;;;;3.70;3.70;;;;;;;17.01;90.63;65983.16;5112550;28;20292;-68
2022/07/01 10:15:34;;;;;;;3.90;3.50;;;;;;;17.20;91.19;66003.75;5093387;28;20202;-71
2022/07/01 10:18:02;;;;;;;4.17;3.90;;;;;;;;;;5104439;28;20209;-69
2022/07/01 10:20:30;;;;;;;3.67;3.67;;;;;;;17.03;88.01;65977.50;5111893;28;20638;-70
2022/07/01 10:23:06;;;;;;;2.80;2.80;;;;;;;17.17;87.13;65995.16;5113677;28;20683;-70
2022/07/01 10:25:39;;;;;;;2.37;2.23;;;;;;;17.30;86.33;66007.03;5113534;28;20218;-71
2022/07/01 10:28:26;;;;;;;2.50;2.50;;;;;;;17.27;85.28;66008.94;5114133;28;20201;-71
2022/07/01 10:31:01;;;;;;;3.07;2.97;;;;;;;;;;5105540;28;20220;-71
2022/07/01 10:33:34;;;;;;;2.43;2.43;;;;;;;17.44;83.54;66024.16;5113308;28;20208;-71
2022/07/01 10:36:06;;;;;;;2.50;2.40;;;;;;;17.33;80.86;66010.38;5103354;28;20190;-70
2022/07/01 10:38:33;;;;;;;2.63;2.63;;;;;;;17.30;83.72;66007.03;5114740;28;20209;-70
2022/07/01 10:41:33;;;;;;;2.70;2.60;;;;;;;17.38;83.50;66009.59;5112845;28;20189;-71
2022/07/01 10:43:56;;;;;;;2.93;1.97;;;;;;;17.39;79.79;66015.97;5108792;28;20225;-71
2022/07/01 10:46:45;;;;;;;3.20;2.30;;;;;;;17.58;79.25;66031.91;5110958;28;20550;-71
2022/07/01 10:49:18;;;;;;;2.20;2.10;;;;;;;17.74;83.18;66055.03;5104908;28;20284;-70
2022/07/01 10:51:53;;;;;;;2.40;2.20;;;;;;;17.65;81.60;66047.59;5110303;28;20200;-69
2022/07/01 10:54:35;;;;;;;3.00;2.17;;;;;;;17.80;81.85;66064.34;5112294;28;20192;-72
2022/07/01 10:57:23;;;;;;;2.87;2.20;;;;;;;17.76;79.78;66059.88;5112220;28;20177;-73
2022/07/01 11:00:00;;;;;;;4.23;1.80;;;;;;;17.99;80.63;66084.41;5108239;28;20608;-72
2022/07/01 11:02:28;;;;;;;1.70;1.70;;;;;;;18.07;77.85;66095.97;5088448;28;20320;-72
2022/07/01 11:05:00;;;;;;;4.57;1.70;;;;;;;18.15;77.91;66102.28;5111233;28;20224;-74
2022/07/01 11:07:28;;;;;;;3.83;1.70;;;;;;;18.17;79.70;66103.94;5115828;28;20224;-71
2022/07/01 11:09:56;;;;;;;2.20;2.20;;;;;;;17.86;76.73;66071.03;5116283;28;20181;-73
2022/07/01 11:12:23;;;;;;;1.83;1.83;;;;;;;18.12;79.60;66091.03;5116811;28;20702;-72
2022/07/01 11:14:51;;;;;;;1.93;1.90;;;;;;;18.18;79.68;66105.63;5116809;28;20190;-72
2022/07/01 11:17:19;;;;;;;1.60;1.60;;;;;;;18.08;74.64;66094.47;5117406;28;20200;-72
2022/07/01 11:19:54;;;;;;;1.57;1.57;;;;;;;18.23;77.23;66108.03;5116723;28;20196;-73
2022/07/01 11:22:22;;;;;;;1.67;1.67;;;;;;;18.03;76.42;66086.25;5116532;28;20247;-72
2022/07/01 11:24:55;;;;;;;3.83;1.70;;;;;;;;;;5117103;28;20181;-73
2022/07/01 11:27:22;;;;;;;2.17;2.07;;;;;;;17.80;77.33;66064.34;5116667;28;20582;-72
2022/07/01 11:29:52;;;;;;;2.07;2.07;;;;;;;;;;5116503;28;20213;-73
2022/07/01 11:32:26;;;;;;;2.63;2.63;;;;;;;;;;5116916;28;20679;-72
2022/07/01 11:34:53;;;;;;;2.13;2.07;;;;;;;18.10;80.10;66097.25;5116996;28;20204;-73
2022/07/01 11:40:09;;;;;;;2.73;2.63;;;;;;;18.10;80.55;66096.69;5116599;28;20204;-73
2022/07/01 11:42:37;;;;;;;2.07;1.90;;;;;;;18.04;81.04;66087.38;5116460;28;20616;-73
2022/07/01 11:45:24;;;;;;;3.23;1.63;;;;;;;18.13;79.38;66097.97;5116561;28;20196;-71